sensor_id;sensor_type;location;lat;lon;timestamp;P1;durP1;ratioP1;P2;durP2;ratioP2
6111;SDS011;3086;48.802;9.394;2023-01-30T00:00:57;28.90;;;18.70;;
6111;SDS011;3086;48.802;9.394;2023-01-30T00:04:20;20.47;;;13.80;;
6111;SDS011;3086;48.802;9.394;2023-01-30T00:07:43;26.83;;;15.17;;
6111;SDS011;3086;48.802;9.394;2023-01-30T00:11:05;22.13;;;15.13;;
6111;SDS011;3086;48.802;9.394;2023-01-30T00:14:27;18.87;;;13.07;;
6111;SDS011;3086;48.802;9.394;2023-01-30T00:17:49;23.10;;;16.10;;
6111;SDS011;3086;48.802;9.394;2023-01-30T00:21:11;19.30;;;13.90;;
6111;SDS011;3086;48.802;9.394;2023-01-30T00:24:34;28.97;;;18.17;;
6111;SDS011;3086;48.802;9.394;2023-01-30T00:27:57;25.10;;;16.67;;
6111;SDS011;3086;48.802;9.394;2023-01-30T00:31:19;28.17;;;16.37;;
6111;SDS011;3086;48.802;9.394;2023-01-30T00:34:41;21.50;;;14.87;;
6111;SDS011;3086;48.802;9.394;2023-01-30T00:38:02;21.50;;;14.30;;
6111;SDS011;3086;48.802;9.394;2023-01-30T00:41:25;22.37;;;14.10;;
6111;SDS011;3086;48.802;9.394;2023-01-30T00:45:07;24.33;;;16.43;;
6111;SDS011;3086;48.802;9.394;2023-01-30T00:48:47;26.97;;;17.13;;
6111;SDS011;3086;48.802;9.394;2023-01-30T00:52:09;29.00;;;17.20;;
6111;SDS011;3086;48.802;9.394;2023-01-30T00:55:30;28.00;;;17.70;;
6111;SDS011;3086;48.802;9.394;2023-01-30T00:58:53;21.43;;;13.97;;
6111;SDS011;3086;48.802;9.394;2023-01-30T01:02:14;19.63;;;14.07;;
6111;SDS011;3086;48.802;9.394;2023-01-30T01:05:36;20.47;;;14.13;;
6111;SDS011;3086;48.802;9.394;2023-01-30T01:08:57;17.47;;;13.03;;
6111;SDS011;3086;48.802;9.394;2023-01-30T01:12:19;19.43;;;12.77;;
6111;SDS011;3086;48.802;9.394;2023-01-30T01:15:42;20.70;;;13.93;;
6111;SDS011;3086;48.802;9.394;2023-01-30T01:19:03;22.13;;;14.07;;
6111;SDS011;3086;48.802;9.394;2023-01-30T01:22:25;26.70;;;16.37;;
6111;SDS011;3086;48.802;9.394;2023-01-30T01:25:47;28.53;;;16.50;;
6111;SDS011;3086;48.802;9.394;2023-01-30T01:29:09;25.03;;;15.93;;
6111;SDS011;3086;48.802;9.394;2023-01-30T01:32:33;25.83;;;15.90;;
6111;SDS011;3086;48.802;9.394;2023-01-30T01:35:54;20.87;;;15.03;;
6111;SDS011;3086;48.802;9.394;2023-01-30T01:39:16;23.07;;;15.37;;
6111;SDS011;3086;48.802;9.394;2023-01-30T01:42:38;24.33;;;16.23;;
6111;SDS011;3086;48.802;9.394;2023-01-30T01:45:59;18.13;;;12.97;;
6111;SDS011;3086;48.802;9.394;2023-01-30T01:49:27;24.03;;;13.70;;
6111;SDS011;3086;48.802;9.394;2023-01-30T01:52:51;21.90;;;13.63;;
6111;SDS011;3086;48.802;9.394;2023-01-30T01:56:14;25.67;;;13.33;;
6111;SDS011;3086;48.802;9.394;2023-01-30T01:59:37;22.20;;;14.47;;
6111;SDS011;3086;48.802;9.394;2023-01-30T02:03:04;26.63;;;15.17;;
6111;SDS011;3086;48.802;9.394;2023-01-30T02:06:28;24.37;;;14.77;;
6111;SDS011;3086;48.802;9.394;2023-01-30T02:09:50;23.23;;;14.87;;
6111;SDS011;3086;48.802;9.394;2023-01-30T02:13:11;21.13;;;14.93;;
6111;SDS011;3086;48.802;9.394;2023-01-30T02:16:34;22.23;;;14.60;;
6111;SDS011;3086;48.802;9.394;2023-01-30T02:19:58;25.17;;;15.50;;
6111;SDS011;3086;48.802;9.394;2023-01-30T02:27:16;23.37;;;14.40;;
6111;SDS011;3086;48.802;9.394;2023-01-30T02:30:51;24.33;;;15.50;;
6111;SDS011;3086;48.802;9.394;2023-01-30T02:34:34;17.73;;;12.17;;
6111;SDS011;3086;48.802;9.394;2023-01-30T02:38:03;20.10;;;12.80;;
6111;SDS011;3086;48.802;9.394;2023-01-30T02:41:34;19.70;;;13.20;;
6111;SDS011;3086;48.802;9.394;2023-01-30T02:44:58;24.03;;;14.93;;
6111;SDS011;3086;48.802;9.394;2023-01-30T02:48:24;19.47;;;12.83;;
6111;SDS011;3086;48.802;9.394;2023-01-30T02:51:47;17.80;;;12.27;;
6111;SDS011;3086;48.802;9.394;2023-01-30T02:55:16;18.80;;;12.50;;
6111;SDS011;3086;48.802;9.394;2023-01-30T02:58:39;18.93;;;13.33;;
6111;SDS011;3086;48.802;9.394;2023-01-30T03:02:14;20.00;;;13.67;;
6111;SDS011;3086;48.802;9.394;2023-01-30T03:09:42;18.43;;;12.87;;
6111;SDS011;3086;48.802;9.394;2023-01-30T03:13:09;21.97;;;12.27;;
6111;SDS011;3086;48.802;9.394;2023-01-30T03:16:32;17.33;;;12.97;;
6111;SDS011;3086;48.802;9.394;2023-01-30T03:19:55;20.27;;;14.00;;
6111;SDS011;3086;48.802;9.394;2023-01-30T03:23:19;22.60;;;14.30;;
6111;SDS011;3086;48.802;9.394;2023-01-30T03:26:42;17.60;;;13.97;;
6111;SDS011;3086;48.802;9.394;2023-01-30T03:30:05;18.73;;;12.77;;
6111;SDS011;3086;48.802;9.394;2023-01-30T03:33:28;17.63;;;11.97;;
6111;SDS011;3086;48.802;9.394;2023-01-30T03:36:49;19.07;;;12.77;;
6111;SDS011;3086;48.802;9.394;2023-01-30T03:40:13;18.73;;;13.10;;
6111;SDS011;3086;48.802;9.394;2023-01-30T03:43:35;15.73;;;11.33;;
6111;SDS011;3086;48.802;9.394;2023-01-30T03:46:56;18.70;;;12.40;;
6111;SDS011;3086;48.802;9.394;2023-01-30T03:50:18;18.57;;;12.83;;
6111;SDS011;3086;48.802;9.394;2023-01-30T03:53:39;18.43;;;12.63;;
6111;SDS011;3086;48.802;9.394;2023-01-30T03:57:02;16.27;;;12.17;;
6111;SDS011;3086;48.802;9.394;2023-01-30T04:00:24;16.43;;;12.13;;
6111;SDS011;3086;48.802;9.394;2023-01-30T04:03:46;14.67;;;11.63;;
6111;SDS011;3086;48.802;9.394;2023-01-30T04:07:07;18.63;;;11.07;;
6111;SDS011;3086;48.802;9.394;2023-01-30T04:10:28;16.97;;;11.87;;
6111;SDS011;3086;48.802;9.394;2023-01-30T04:13:51;13.83;;;10.10;;
6111;SDS011;3086;48.802;9.394;2023-01-30T04:17:13;14.37;;;10.87;;
6111;SDS011;3086;48.802;9.394;2023-01-30T04:20:34;14.80;;;10.33;;
6111;SDS011;3086;48.802;9.394;2023-01-30T04:23:56;16.23;;;9.83;;
6111;SDS011;3086;48.802;9.394;2023-01-30T04:27:18;15.07;;;11.07;;
6111;SDS011;3086;48.802;9.394;2023-01-30T04:30:40;14.97;;;11.07;;
6111;SDS011;3086;48.802;9.394;2023-01-30T04:34:02;14.57;;;11.07;;
6111;SDS011;3086;48.802;9.394;2023-01-30T04:37:23;13.70;;;11.13;;
6111;SDS011;3086;48.802;9.394;2023-01-30T04:40:46;13.53;;;10.37;;
6111;SDS011;3086;48.802;9.394;2023-01-30T04:44:09;14.93;;;10.23;;
6111;SDS011;3086;48.802;9.394;2023-01-30T04:47:31;17.10;;;9.87;;
6111;SDS011;3086;48.802;9.394;2023-01-30T04:50:55;11.83;;;9.40;;
6111;SDS011;3086;48.802;9.394;2023-01-30T04:54:17;12.33;;;9.63;;
6111;SDS011;3086;48.802;9.394;2023-01-30T04:57:38;15.47;;;10.07;;
6111;SDS011;3086;48.802;9.394;2023-01-30T05:01:12;14.20;;;10.20;;
6111;SDS011;3086;48.802;9.394;2023-01-30T05:04:40;11.87;;;10.10;;
6111;SDS011;3086;48.802;9.394;2023-01-30T05:08:02;13.60;;;10.07;;
6111;SDS011;3086;48.802;9.394;2023-01-30T05:11:24;11.53;;;8.50;;
6111;SDS011;3086;48.802;9.394;2023-01-30T05:14:47;13.60;;;10.27;;
6111;SDS011;3086;48.802;9.394;2023-01-30T05:18:08;14.93;;;9.70;;
6111;SDS011;3086;48.802;9.394;2023-01-30T05:21:31;11.90;;;9.13;;
6111;SDS011;3086;48.802;9.394;2023-01-30T05:24:53;13.20;;;9.13;;
6111;SDS011;3086;48.802;9.394;2023-01-30T05:28:14;11.13;;;9.07;;
6111;SDS011;3086;48.802;9.394;2023-01-30T05:31:36;10.97;;;8.80;;
6111;SDS011;3086;48.802;9.394;2023-01-30T05:34:57;12.00;;;9.43;;
6111;SDS011;3086;48.802;9.394;2023-01-30T05:38:20;13.03;;;8.97;;
6111;SDS011;3086;48.802;9.394;2023-01-30T05:41:42;16.70;;;9.70;;
6111;SDS011;3086;48.802;9.394;2023-01-30T05:45:04;11.17;;;8.60;;
6111;SDS011;3086;48.802;9.394;2023-01-30T05:48:26;10.80;;;8.57;;
6111;SDS011;3086;48.802;9.394;2023-01-30T05:51:48;11.53;;;8.77;;
6111;SDS011;3086;48.802;9.394;2023-01-30T05:55:11;14.07;;;9.63;;
6111;SDS011;3086;48.802;9.394;2023-01-30T05:58:33;11.43;;;8.97;;
6111;SDS011;3086;48.802;9.394;2023-01-30T06:01:54;13.93;;;8.40;;
6111;SDS011;3086;48.802;9.394;2023-01-30T06:05:15;11.00;;;8.33;;
6111;SDS011;3086;48.802;9.394;2023-01-30T06:08:37;11.97;;;7.83;;
6111;SDS011;3086;48.802;9.394;2023-01-30T06:12:00;10.00;;;8.47;;
6111;SDS011;3086;48.802;9.394;2023-01-30T06:15:21;9.70;;;7.50;;
6111;SDS011;3086;48.802;9.394;2023-01-30T06:18:43;10.90;;;8.20;;
6111;SDS011;3086;48.802;9.394;2023-01-30T06:22:07;10.43;;;8.07;;
6111;SDS011;3086;48.802;9.394;2023-01-30T06:25:28;10.83;;;8.37;;
6111;SDS011;3086;48.802;9.394;2023-01-30T06:28:51;11.67;;;9.13;;
6111;SDS011;3086;48.802;9.394;2023-01-30T06:32:12;10.63;;;8.17;;
6111;SDS011;3086;48.802;9.394;2023-01-30T06:35:35;12.83;;;7.80;;
6111;SDS011;3086;48.802;9.394;2023-01-30T06:38:57;10.23;;;7.87;;
6111;SDS011;3086;48.802;9.394;2023-01-30T06:42:18;11.20;;;8.47;;
6111;SDS011;3086;48.802;9.394;2023-01-30T06:45:41;8.77;;;7.27;;
6111;SDS011;3086;48.802;9.394;2023-01-30T06:49:03;9.50;;;6.87;;
6111;SDS011;3086;48.802;9.394;2023-01-30T06:52:24;10.50;;;8.60;;
6111;SDS011;3086;48.802;9.394;2023-01-30T06:55:46;10.70;;;8.20;;
6111;SDS011;3086;48.802;9.394;2023-01-30T06:59:07;11.27;;;7.87;;
6111;SDS011;3086;48.802;9.394;2023-01-30T07:02:30;10.33;;;7.80;;
6111;SDS011;3086;48.802;9.394;2023-01-30T07:05:54;12.73;;;8.23;;
6111;SDS011;3086;48.802;9.394;2023-01-30T07:09:16;9.93;;;7.53;;
6111;SDS011;3086;48.802;9.394;2023-01-30T07:12:37;9.30;;;7.33;;
6111;SDS011;3086;48.802;9.394;2023-01-30T07:15:59;11.40;;;8.10;;
6111;SDS011;3086;48.802;9.394;2023-01-30T07:19:21;13.13;;;8.07;;
6111;SDS011;3086;48.802;9.394;2023-01-30T07:22:47;9.83;;;8.07;;
6111;SDS011;3086;48.802;9.394;2023-01-30T07:26:09;10.63;;;8.23;;
6111;SDS011;3086;48.802;9.394;2023-01-30T07:29:31;9.53;;;7.43;;
6111;SDS011;3086;48.802;9.394;2023-01-30T07:32:52;10.83;;;8.10;;
6111;SDS011;3086;48.802;9.394;2023-01-30T07:36:16;9.57;;;8.17;;
6111;SDS011;3086;48.802;9.394;2023-01-30T07:39:38;11.90;;;8.27;;
6111;SDS011;3086;48.802;9.394;2023-01-30T07:43:00;9.17;;;7.57;;
6111;SDS011;3086;48.802;9.394;2023-01-30T07:46:23;9.00;;;7.63;;
6111;SDS011;3086;48.802;9.394;2023-01-30T07:49:44;9.20;;;7.13;;
6111;SDS011;3086;48.802;9.394;2023-01-30T07:53:08;11.73;;;8.07;;
6111;SDS011;3086;48.802;9.394;2023-01-30T07:56:30;10.57;;;8.10;;
6111;SDS011;3086;48.802;9.394;2023-01-30T07:59:52;10.40;;;7.87;;
6111;SDS011;3086;48.802;9.394;2023-01-30T08:03:14;10.87;;;8.20;;
6111;SDS011;3086;48.802;9.394;2023-01-30T08:06:36;11.10;;;7.70;;
6111;SDS011;3086;48.802;9.394;2023-01-30T08:09:59;8.93;;;6.90;;
6111;SDS011;3086;48.802;9.394;2023-01-30T08:13:20;10.17;;;7.20;;
6111;SDS011;3086;48.802;9.394;2023-01-30T08:16:42;10.13;;;7.20;;
6111;SDS011;3086;48.802;9.394;2023-01-30T08:20:04;9.73;;;7.10;;
6111;SDS011;3086;48.802;9.394;2023-01-30T08:23:26;12.00;;;7.57;;
6111;SDS011;3086;48.802;9.394;2023-01-30T08:26:49;10.10;;;7.83;;
6111;SDS011;3086;48.802;9.394;2023-01-30T08:30:11;8.20;;;7.27;;
6111;SDS011;3086;48.802;9.394;2023-01-30T08:33:33;10.37;;;7.30;;
6111;SDS011;3086;48.802;9.394;2023-01-30T08:36:55;10.47;;;7.60;;
6111;SDS011;3086;48.802;9.394;2023-01-30T08:40:16;11.30;;;7.67;;
6111;SDS011;3086;48.802;9.394;2023-01-30T08:43:39;9.70;;;7.67;;
6111;SDS011;3086;48.802;9.394;2023-01-30T08:47:00;10.50;;;7.63;;
6111;SDS011;3086;48.802;9.394;2023-01-30T08:50:22;8.67;;;7.10;;
6111;SDS011;3086;48.802;9.394;2023-01-30T08:53:43;8.67;;;6.83;;
6111;SDS011;3086;48.802;9.394;2023-01-30T08:57:05;8.43;;;7.20;;
6111;SDS011;3086;48.802;9.394;2023-01-30T09:00:28;10.57;;;7.77;;
6111;SDS011;3086;48.802;9.394;2023-01-30T09:03:49;8.93;;;6.70;;
6111;SDS011;3086;48.802;9.394;2023-01-30T09:07:11;9.23;;;7.00;;
6111;SDS011;3086;48.802;9.394;2023-01-30T09:10:33;8.07;;;6.23;;
6111;SDS011;3086;48.802;9.394;2023-01-30T09:13:54;9.37;;;6.37;;
6111;SDS011;3086;48.802;9.394;2023-01-30T09:17:17;8.03;;;6.43;;
6111;SDS011;3086;48.802;9.394;2023-01-30T09:20:39;8.13;;;6.50;;
6111;SDS011;3086;48.802;9.394;2023-01-30T09:24:00;7.47;;;6.10;;
6111;SDS011;3086;48.802;9.394;2023-01-30T09:27:22;7.37;;;6.07;;
6111;SDS011;3086;48.802;9.394;2023-01-30T09:30:43;7.37;;;5.77;;
6111;SDS011;3086;48.802;9.394;2023-01-30T09:34:06;6.90;;;5.70;;
6111;SDS011;3086;48.802;9.394;2023-01-30T09:37:28;7.70;;;6.17;;
6111;SDS011;3086;48.802;9.394;2023-01-30T09:40:52;6.47;;;5.37;;
6111;SDS011;3086;48.802;9.394;2023-01-30T09:44:31;9.40;;;6.93;;
6111;SDS011;3086;48.802;9.394;2023-01-30T09:48:03;6.80;;;6.10;;
6111;SDS011;3086;48.802;9.394;2023-01-30T09:51:42;8.93;;;6.13;;
6111;SDS011;3086;48.802;9.394;2023-01-30T09:55:14;8.43;;;6.30;;
6111;SDS011;3086;48.802;9.394;2023-01-30T09:58:40;7.13;;;6.20;;
6111;SDS011;3086;48.802;9.394;2023-01-30T10:02:12;8.40;;;5.90;;
6111;SDS011;3086;48.802;9.394;2023-01-30T10:05:45;5.90;;;5.40;;
6111;SDS011;3086;48.802;9.394;2023-01-30T10:09:10;6.77;;;6.07;;
6111;SDS011;3086;48.802;9.394;2023-01-30T10:12:38;7.00;;;6.30;;
6111;SDS011;3086;48.802;9.394;2023-01-30T10:16:05;6.70;;;5.30;;
6111;SDS011;3086;48.802;9.394;2023-01-30T10:19:35;5.20;;;4.70;;
6111;SDS011;3086;48.802;9.394;2023-01-30T10:23:14;5.93;;;5.33;;
6111;SDS011;3086;48.802;9.394;2023-01-30T10:26:44;7.07;;;5.80;;
6111;SDS011;3086;48.802;9.394;2023-01-30T10:30:06;7.30;;;5.43;;
6111;SDS011;3086;48.802;9.394;2023-01-30T10:33:31;5.73;;;4.90;;
6111;SDS011;3086;48.802;9.394;2023-01-30T10:36:56;4.93;;;4.43;;
6111;SDS011;3086;48.802;9.394;2023-01-30T10:40:20;5.27;;;4.77;;
6111;SDS011;3086;48.802;9.394;2023-01-30T10:43:46;5.67;;;5.10;;
6111;SDS011;3086;48.802;9.394;2023-01-30T10:47:23;4.97;;;4.13;;
6111;SDS011;3086;48.802;9.394;2023-01-30T10:51:02;5.50;;;3.90;;
6111;SDS011;3086;48.802;9.394;2023-01-30T10:54:27;4.13;;;3.73;;
6111;SDS011;3086;48.802;9.394;2023-01-30T10:57:54;5.40;;;4.30;;
6111;SDS011;3086;48.802;9.394;2023-01-30T11:01:22;4.47;;;3.93;;
6111;SDS011;3086;48.802;9.394;2023-01-30T11:04:45;6.30;;;4.50;;
6111;SDS011;3086;48.802;9.394;2023-01-30T11:08:12;4.00;;;3.53;;
6111;SDS011;3086;48.802;9.394;2023-01-30T11:11:41;6.60;;;4.10;;
6111;SDS011;3086;48.802;9.394;2023-01-30T11:15:08;5.10;;;3.80;;
6111;SDS011;3086;48.802;9.394;2023-01-30T11:18:32;5.53;;;4.67;;
6111;SDS011;3086;48.802;9.394;2023-01-30T11:21:54;5.63;;;4.20;;
6111;SDS011;3086;48.802;9.394;2023-01-30T11:25:18;4.30;;;3.67;;
6111;SDS011;3086;48.802;9.394;2023-01-30T11:28:41;4.00;;;3.63;;
6111;SDS011;3086;48.802;9.394;2023-01-30T11:32:06;14.33;;;12.90;;
6111;SDS011;3086;48.802;9.394;2023-01-30T11:35:33;4.40;;;4.00;;
6111;SDS011;3086;48.802;9.394;2023-01-30T11:39:02;5.57;;;4.10;;
6111;SDS011;3086;48.802;9.394;2023-01-30T11:42:30;4.60;;;3.90;;
6111;SDS011;3086;48.802;9.394;2023-01-30T11:45:52;4.87;;;4.43;;
6111;SDS011;3086;48.802;9.394;2023-01-30T11:49:13;4.90;;;4.40;;
6111;SDS011;3086;48.802;9.394;2023-01-30T11:52:37;4.83;;;4.33;;
6111;SDS011;3086;48.802;9.394;2023-01-30T11:55:59;9.80;;;4.97;;
6111;SDS011;3086;48.802;9.394;2023-01-30T11:59:26;7.10;;;4.70;;
6111;SDS011;3086;48.802;9.394;2023-01-30T12:02:50;8.13;;;5.17;;
6111;SDS011;3086;48.802;9.394;2023-01-30T12:06:20;7.43;;;5.17;;
6111;SDS011;3086;48.802;9.394;2023-01-30T12:09:45;7.07;;;5.50;;
6111;SDS011;3086;48.802;9.394;2023-01-30T12:13:12;5.87;;;4.40;;
6111;SDS011;3086;48.802;9.394;2023-01-30T12:16:41;7.33;;;4.73;;
6111;SDS011;3086;48.802;9.394;2023-01-30T12:20:11;5.60;;;5.10;;
6111;SDS011;3086;48.802;9.394;2023-01-30T12:23:37;4.87;;;4.00;;
6111;SDS011;3086;48.802;9.394;2023-01-30T12:27:03;4.97;;;4.47;;
6111;SDS011;3086;48.802;9.394;2023-01-30T12:30:31;4.87;;;4.33;;
6111;SDS011;3086;48.802;9.394;2023-01-30T12:33:55;5.60;;;4.57;;
6111;SDS011;3086;48.802;9.394;2023-01-30T12:37:25;5.67;;;5.13;;
6111;SDS011;3086;48.802;9.394;2023-01-30T12:40:58;5.23;;;4.73;;
6111;SDS011;3086;48.802;9.394;2023-01-30T12:44:33;6.83;;;5.63;;
6111;SDS011;3086;48.802;9.394;2023-01-30T12:48:10;4.97;;;4.47;;
6111;SDS011;3086;48.802;9.394;2023-01-30T12:51:53;7.30;;;5.20;;
6111;SDS011;3086;48.802;9.394;2023-01-30T12:55:26;5.37;;;4.87;;
6111;SDS011;3086;48.802;9.394;2023-01-30T12:58:55;8.47;;;5.20;;
6111;SDS011;3086;48.802;9.394;2023-01-30T13:02:25;5.37;;;4.87;;
6111;SDS011;3086;48.802;9.394;2023-01-30T13:06:09;6.20;;;5.07;;
6111;SDS011;3086;48.802;9.394;2023-01-30T13:09:51;6.17;;;5.23;;
6111;SDS011;3086;48.802;9.394;2023-01-30T13:13:20;7.43;;;5.93;;
6111;SDS011;3086;48.802;9.394;2023-01-30T13:16:49;6.27;;;5.40;;
6111;SDS011;3086;48.802;9.394;2023-01-30T13:20:26;6.97;;;5.80;;
6111;SDS011;3086;48.802;9.394;2023-01-30T13:24:00;7.77;;;6.17;;
6111;SDS011;3086;48.802;9.394;2023-01-30T13:27:28;6.07;;;5.10;;
6111;SDS011;3086;48.802;9.394;2023-01-30T13:30:55;6.57;;;5.30;;
6111;SDS011;3086;48.802;9.394;2023-01-30T13:34:19;5.03;;;4.43;;
6111;SDS011;3086;48.802;9.394;2023-01-30T13:37:46;7.10;;;5.13;;
6111;SDS011;3086;48.802;9.394;2023-01-30T13:41:09;7.60;;;4.83;;
6111;SDS011;3086;48.802;9.394;2023-01-30T13:44:33;6.03;;;5.43;;
6111;SDS011;3086;48.802;9.394;2023-01-30T13:48:03;5.77;;;5.17;;
6111;SDS011;3086;48.802;9.394;2023-01-30T13:51:39;8.50;;;6.53;;
6111;SDS011;3086;48.802;9.394;2023-01-30T13:55:05;7.57;;;5.20;;
6111;SDS011;3086;48.802;9.394;2023-01-30T13:58:40;13.37;;;9.03;;
6111;SDS011;3086;48.802;9.394;2023-01-30T14:02:12;7.20;;;6.43;;
6111;SDS011;3086;48.802;9.394;2023-01-30T14:09:27;6.87;;;5.50;;
6111;SDS011;3086;48.802;9.394;2023-01-30T14:12:53;7.07;;;5.27;;
6111;SDS011;3086;48.802;9.394;2023-01-30T14:16:15;5.13;;;4.63;;
6111;SDS011;3086;48.802;9.394;2023-01-30T14:19:43;8.17;;;6.30;;
6111;SDS011;3086;48.802;9.394;2023-01-30T14:23:18;17.17;;;9.83;;
6111;SDS011;3086;48.802;9.394;2023-01-30T14:26:58;6.63;;;5.03;;
6111;SDS011;3086;48.802;9.394;2023-01-30T14:30:35;7.97;;;5.43;;
6111;SDS011;3086;48.802;9.394;2023-01-30T14:33:57;9.93;;;8.63;;
6111;SDS011;3086;48.802;9.394;2023-01-30T14:37:29;7.97;;;4.97;;
6111;SDS011;3086;48.802;9.394;2023-01-30T14:41:15;7.43;;;6.17;;
6111;SDS011;3086;48.802;9.394;2023-01-30T14:45:03;7.57;;;5.83;;
6111;SDS011;3086;48.802;9.394;2023-01-30T14:48:28;6.17;;;4.80;;
6111;SDS011;3086;48.802;9.394;2023-01-30T14:51:51;6.33;;;5.73;;
6111;SDS011;3086;48.802;9.394;2023-01-30T14:55:15;5.13;;;4.67;;
6111;SDS011;3086;48.802;9.394;2023-01-30T14:58:39;5.63;;;4.73;;
6111;SDS011;3086;48.802;9.394;2023-01-30T15:02:05;4.40;;;4.00;;
6111;SDS011;3086;48.802;9.394;2023-01-30T15:05:42;4.40;;;3.67;;
6111;SDS011;3086;48.802;9.394;2023-01-30T15:09:06;4.43;;;3.80;;
6111;SDS011;3086;48.802;9.394;2023-01-30T15:12:35;3.97;;;3.13;;
6111;SDS011;3086;48.802;9.394;2023-01-30T15:16:11;4.40;;;3.50;;
6111;SDS011;3086;48.802;9.394;2023-01-30T15:19:47;4.90;;;3.63;;
6111;SDS011;3086;48.802;9.394;2023-01-30T15:23:29;5.13;;;3.50;;
6111;SDS011;3086;48.802;9.394;2023-01-30T15:27:03;4.40;;;3.70;;
6111;SDS011;3086;48.802;9.394;2023-01-30T15:30:38;4.20;;;3.80;;
6111;SDS011;3086;48.802;9.394;2023-01-30T15:34:14;4.67;;;3.87;;
6111;SDS011;3086;48.802;9.394;2023-01-30T15:37:40;9.30;;;7.20;;
6111;SDS011;3086;48.802;9.394;2023-01-30T15:41:09;7.20;;;6.17;;
6111;SDS011;3086;48.802;9.394;2023-01-30T15:44:32;5.63;;;5.07;;
6111;SDS011;3086;48.802;9.394;2023-01-30T15:48:02;10.13;;;5.43;;
6111;SDS011;3086;48.802;9.394;2023-01-30T15:51:32;5.97;;;5.20;;
6111;SDS011;3086;48.802;9.394;2023-01-30T15:54:54;6.00;;;4.90;;
6111;SDS011;3086;48.802;9.394;2023-01-30T15:58:19;6.07;;;4.80;;
6111;SDS011;3086;48.802;9.394;2023-01-30T16:01:42;5.83;;;4.13;;
6111;SDS011;3086;48.802;9.394;2023-01-30T16:05:04;4.43;;;4.03;;
6111;SDS011;3086;48.802;9.394;2023-01-30T16:08:28;4.80;;;4.30;;
6111;SDS011;3086;48.802;9.394;2023-01-30T16:11:50;6.37;;;4.60;;
6111;SDS011;3086;48.802;9.394;2023-01-30T16:15:14;7.47;;;5.33;;
6111;SDS011;3086;48.802;9.394;2023-01-30T16:18:37;4.60;;;4.20;;
6111;SDS011;3086;48.802;9.394;2023-01-30T16:22:02;6.70;;;4.57;;
6111;SDS011;3086;48.802;9.394;2023-01-30T16:25:25;7.90;;;4.83;;
6111;SDS011;3086;48.802;9.394;2023-01-30T16:28:57;6.47;;;5.07;;
6111;SDS011;3086;48.802;9.394;2023-01-30T16:32:22;6.93;;;6.23;;
6111;SDS011;3086;48.802;9.394;2023-01-30T16:35:45;7.43;;;5.23;;
6111;SDS011;3086;48.802;9.394;2023-01-30T16:42:54;8.70;;;5.13;;
6111;SDS011;3086;48.802;9.394;2023-01-30T16:46:43;7.13;;;5.20;;
6111;SDS011;3086;48.802;9.394;2023-01-30T16:50:09;5.33;;;4.80;;
6111;SDS011;3086;48.802;9.394;2023-01-30T16:53:38;9.67;;;8.33;;
6111;SDS011;3086;48.802;9.394;2023-01-30T16:57:06;8.70;;;6.03;;
6111;SDS011;3086;48.802;9.394;2023-01-30T17:00:32;6.80;;;5.63;;
6111;SDS011;3086;48.802;9.394;2023-01-30T17:03:57;5.83;;;5.03;;
6111;SDS011;3086;48.802;9.394;2023-01-30T17:07:34;6.53;;;5.60;;
6111;SDS011;3086;48.802;9.394;2023-01-30T17:10:58;7.00;;;5.00;;
6111;SDS011;3086;48.802;9.394;2023-01-30T17:14:20;9.33;;;5.03;;
6111;SDS011;3086;48.802;9.394;2023-01-30T17:17:43;5.73;;;4.83;;
6111;SDS011;3086;48.802;9.394;2023-01-30T17:21:04;6.70;;;4.67;;
6111;SDS011;3086;48.802;9.394;2023-01-30T17:24:29;6.83;;;5.13;;
6111;SDS011;3086;48.802;9.394;2023-01-30T17:27:51;6.33;;;4.90;;
6111;SDS011;3086;48.802;9.394;2023-01-30T17:31:13;8.27;;;5.43;;
6111;SDS011;3086;48.802;9.394;2023-01-30T17:34:36;6.40;;;5.07;;
6111;SDS011;3086;48.802;9.394;2023-01-30T17:37:59;5.83;;;4.87;;
6111;SDS011;3086;48.802;9.394;2023-01-30T17:41:23;7.53;;;5.30;;
6111;SDS011;3086;48.802;9.394;2023-01-30T17:44:47;6.93;;;5.07;;
6111;SDS011;3086;48.802;9.394;2023-01-30T17:48:09;8.57;;;5.17;;
6111;SDS011;3086;48.802;9.394;2023-01-30T17:51:32;5.87;;;4.70;;
6111;SDS011;3086;48.802;9.394;2023-01-30T17:54:54;6.47;;;4.50;;
6111;SDS011;3086;48.802;9.394;2023-01-30T17:58:16;8.27;;;5.63;;
6111;SDS011;3086;48.802;9.394;2023-01-30T18:01:38;7.13;;;5.47;;
6111;SDS011;3086;48.802;9.394;2023-01-30T18:05:00;8.53;;;6.80;;
6111;SDS011;3086;48.802;9.394;2023-01-30T18:08:21;7.67;;;6.03;;
6111;SDS011;3086;48.802;9.394;2023-01-30T18:11:43;8.60;;;6.17;;
6111;SDS011;3086;48.802;9.394;2023-01-30T18:15:08;7.10;;;5.80;;
6111;SDS011;3086;48.802;9.394;2023-01-30T18:18:30;18.20;;;11.80;;
6111;SDS011;3086;48.802;9.394;2023-01-30T18:21:52;8.40;;;7.30;;
6111;SDS011;3086;48.802;9.394;2023-01-30T18:25:14;9.87;;;7.40;;
6111;SDS011;3086;48.802;9.394;2023-01-30T18:28:36;8.13;;;6.13;;
6111;SDS011;3086;48.802;9.394;2023-01-30T18:31:59;7.63;;;6.30;;
6111;SDS011;3086;48.802;9.394;2023-01-30T18:35:24;8.10;;;6.10;;
6111;SDS011;3086;48.802;9.394;2023-01-30T18:38:46;9.90;;;6.23;;
6111;SDS011;3086;48.802;9.394;2023-01-30T18:42:07;11.20;;;7.77;;
6111;SDS011;3086;48.802;9.394;2023-01-30T18:45:29;11.00;;;9.23;;
6111;SDS011;3086;48.802;9.394;2023-01-30T18:48:53;31.17;;;19.83;;
6111;SDS011;3086;48.802;9.394;2023-01-30T18:52:15;15.83;;;10.47;;
6111;SDS011;3086;48.802;9.394;2023-01-30T18:55:36;11.33;;;9.37;;
6111;SDS011;3086;48.802;9.394;2023-01-30T18:58:58;8.43;;;7.60;;
6111;SDS011;3086;48.802;9.394;2023-01-30T19:02:22;8.23;;;6.63;;
6111;SDS011;3086;48.802;9.394;2023-01-30T19:05:45;10.00;;;7.07;;
6111;SDS011;3086;48.802;9.394;2023-01-30T19:09:07;12.07;;;6.60;;
6111;SDS011;3086;48.802;9.394;2023-01-30T19:12:31;9.33;;;6.87;;
6111;SDS011;3086;48.802;9.394;2023-01-30T19:16:10;8.80;;;6.77;;
6111;SDS011;3086;48.802;9.394;2023-01-30T19:19:33;8.97;;;6.73;;
6111;SDS011;3086;48.802;9.394;2023-01-30T19:22:57;10.00;;;6.77;;
6111;SDS011;3086;48.802;9.394;2023-01-30T19:26:19;8.60;;;6.63;;
6111;SDS011;3086;48.802;9.394;2023-01-30T19:29:42;8.07;;;6.40;;
6111;SDS011;3086;48.802;9.394;2023-01-30T19:33:03;10.73;;;6.83;;
6111;SDS011;3086;48.802;9.394;2023-01-30T19:36:25;10.80;;;7.23;;
6111;SDS011;3086;48.802;9.394;2023-01-30T19:39:49;9.13;;;7.20;;
6111;SDS011;3086;48.802;9.394;2023-01-30T19:43:11;8.70;;;5.50;;
6111;SDS011;3086;48.802;9.394;2023-01-30T19:46:33;8.07;;;6.10;;
6111;SDS011;3086;48.802;9.394;2023-01-30T19:49:55;13.07;;;10.53;;
6111;SDS011;3086;48.802;9.394;2023-01-30T19:53:17;7.30;;;6.10;;
6111;SDS011;3086;48.802;9.394;2023-01-30T19:56:40;7.40;;;6.17;;
6111;SDS011;3086;48.802;9.394;2023-01-30T20:00:06;10.30;;;6.23;;
6111;SDS011;3086;48.802;9.394;2023-01-30T20:03:29;9.13;;;6.33;;
6111;SDS011;3086;48.802;9.394;2023-01-30T20:06:50;8.67;;;6.00;;
6111;SDS011;3086;48.802;9.394;2023-01-30T20:10:12;11.50;;;6.37;;
6111;SDS011;3086;48.802;9.394;2023-01-30T20:13:35;10.97;;;6.60;;
6111;SDS011;3086;48.802;9.394;2023-01-30T20:16:57;10.60;;;6.40;;
6111;SDS011;3086;48.802;9.394;2023-01-30T20:20:19;8.57;;;6.90;;
6111;SDS011;3086;48.802;9.394;2023-01-30T20:23:40;12.50;;;6.10;;
6111;SDS011;3086;48.802;9.394;2023-01-30T20:27:03;8.20;;;7.00;;
6111;SDS011;3086;48.802;9.394;2023-01-30T20:30:26;11.10;;;6.33;;
6111;SDS011;3086;48.802;9.394;2023-01-30T20:33:48;11.87;;;5.97;;
6111;SDS011;3086;48.802;9.394;2023-01-30T20:37:09;10.93;;;7.23;;
6111;SDS011;3086;48.802;9.394;2023-01-30T20:40:31;10.30;;;8.73;;
6111;SDS011;3086;48.802;9.394;2023-01-30T20:43:53;11.03;;;6.93;;
6111;SDS011;3086;48.802;9.394;2023-01-30T20:47:17;15.80;;;8.43;;
6111;SDS011;3086;48.802;9.394;2023-01-30T20:50:39;12.23;;;8.00;;
6111;SDS011;3086;48.802;9.394;2023-01-30T20:54:02;8.50;;;6.40;;
6111;SDS011;3086;48.802;9.394;2023-01-30T20:57:25;16.00;;;9.73;;
6111;SDS011;3086;48.802;9.394;2023-01-30T21:00:46;14.77;;;7.33;;
6111;SDS011;3086;48.802;9.394;2023-01-30T21:04:10;11.43;;;8.03;;
6111;SDS011;3086;48.802;9.394;2023-01-30T21:07:32;12.03;;;7.73;;
6111;SDS011;3086;48.802;9.394;2023-01-30T21:10:54;10.10;;;6.80;;
6111;SDS011;3086;48.802;9.394;2023-01-30T21:14:15;10.23;;;7.57;;